< < Back
Terminal Aerodrome Forecast


Current Version              Previous Versions:   1  2  3  4  5  6  7  8  9  

Terminal Aerodrome Forecast

839
FTUS42 KMLB 271740
TAFDAB
TAF
KDAB 271740Z 2718/2818 09011KT P6SM FEW025 SCT250
     FM280000 06005KT P6SM FEW030 SCT070
     FM281400 07009KT P6SM SCT025 SCT050=



Latest METAR

766
SAUS80 KWBC 280500
MTRDAB
METAR KDAB 280453Z 06009KT 10SM SCT020 SCT120 28/26 A2999 RMK AO2 SLP155
T02780256 403280244


USA.gov is the U.S. government's official web portal to all federal, state and local government web resources and services.